Time;durP1;ratioP1;P1;durP2;ratioP2;P2;SDS_P1;SDS_P2;PMS_P1;PMS_P2;Temp;Humidity;BMP_temperature;BMP_pressure;BME280_temperature;BME280_humidity;BME280_pressure;Samples;Min_cycle;Max_cycle;Signal;HPM_P1;HPM_P2
2022/04/25 00:02:14;;;;;;;12.38;8.32;;;;;;;;;;5007790;28;101006;-75
2022/04/25 00:04:41;;;;;;;15.30;9.15;;;;;;;;;;5010169;28;100004;-73
2022/04/25 00:07:08;;;;;;;8.90;7.93;;;;;;;;;;5011870;28;99804;-73
2022/04/25 00:09:34;;;;;;;13.15;8.00;;;;;;;;;;5009243;28;98501;-73
2022/04/25 00:12:00;;;;;;;12.02;7.20;;;;;;;;;;5007251;28;101315;-73
2022/04/25 00:14:27;;;;;;;13.75;8.75;;;;;;;;;;5008720;28;100350;-73
2022/04/25 00:16:56;;;;;;;12.80;8.25;;;;;;;;;;5007727;28;98722;-73
2022/04/25 00:19:23;;;;;;;17.75;8.15;;;;;;;;;;5005932;28;100035;-73
2022/04/25 00:21:51;;;;;;;9.40;8.00;;;;;;;;;;4994790;28;100264;-73
2022/04/25 00:24:18;;;;;;;12.15;8.05;;;;;;;;;;4988838;28;98783;-73
2022/04/25 00:26:44;;;;;;;12.75;8.75;;;;;;;;;;4999757;28;99617;-73
2022/04/25 00:29:12;;;;;;;16.75;8.50;;;;;;;;;;5011293;28;100517;-73
2022/04/25 00:31:39;;;;;;;10.38;8.52;;;;;;;;;;5007558;28;100207;-73
2022/04/25 00:34:05;;;;;;;12.98;8.07;;;;;;;;;;5008460;28;100164;-73
2022/04/25 00:36:32;;;;;;;10.23;7.80;;;;;;;;;;5008494;28;98595;-73
2022/04/25 00:38:59;;;;;;;12.50;8.77;;;;;;;;;;5008288;28;99903;-73
2022/04/25 00:41:25;;;;;;;14.88;8.98;;;;;;;;;;5006060;28;99184;-73
2022/04/25 00:43:55;;;;;;;14.35;8.63;;;;;;;;;;5009263;28;98501;-73
2022/04/25 00:46:22;;;;;;;17.98;8.98;;;;;;;;;;5006713;28;100394;-73
2022/04/25 00:48:49;;;;;;;18.27;9.30;;;;;;;;;;5008952;28;99217;-73
2022/04/25 00:51:16;;;;;;;18.55;9.18;;;;;;;;;;5007471;28;98514;-73
2022/04/25 00:53:46;;;;;;;10.60;8.23;;;;;;;;;;5008678;28;100234;-73
2022/04/25 00:56:16;;;;;;;15.13;8.88;;;;;;;;;;5008113;28;97759;-73
2022/04/25 00:58:43;;;;;;;14.73;9.18;;;;;;;;;;5008566;28;99174;-73
2022/04/25 01:01:10;;;;;;;19.55;9.65;;;;;;;;;;5007363;28;99476;-73
2022/04/25 01:03:37;;;;;;;11.40;8.88;;;;;;;;;;4979285;28;99326;-73
2022/04/25 01:06:03;;;;;;;10.48;9.27;;;;;;;;;;5012035;28;100236;-73
2022/04/25 01:08:33;;;;;;;13.55;9.05;;;;;;;;;;5010349;28;99290;-73
2022/04/25 01:11:01;;;;;;;15.50;9.35;;;;;;;;;;5015354;28;98586;-73
2022/04/25 01:13:27;;;;;;;11.13;9.60;;;;;;;;;;5010031;28;100650;-73
2022/04/25 01:15:53;;;;;;;14.35;10.13;;;;;;;;;;5012658;28;98495;-73
2022/04/25 01:18:20;;;;;;;17.83;10.50;;;;;;;;;;5011424;28;99948;-73
2022/04/25 01:20:46;;;;;;;15.73;8.98;;;;;;;;;;4993783;28;98989;-73
2022/04/25 01:28:51;;;;;;;16.27;9.85;;;;;;;;;;4976439;28;101214;-72
2022/04/25 01:31:18;;;;;;;15.32;9.05;;;;;;;;;;5010806;28;98606;-73
2022/04/25 01:33:44;;;;;;;13.32;10.32;;;;;;;;;;4995739;28;99852;-72
2022/04/25 01:36:11;;;;;;;11.32;9.15;;;;;;;;;;4991830;28;100122;-73
2022/04/25 01:38:37;;;;;;;16.67;10.35;;;;;;;;;;5010049;28;102372;-73
2022/04/25 01:41:04;;;;;;;15.07;11.50;;;;;;;;;;5010548;28;100186;-73
2022/04/25 01:43:35;;;;;;;18.40;10.50;;;;;;;;;;5009335;28;98559;-73
2022/04/25 01:46:03;;;;;;;13.10;10.55;;;;;;;;;;5010229;28;99996;-73
2022/04/25 01:48:30;;;;;;;16.45;10.00;;;;;;;;;;5005615;28;100237;-73
2022/04/25 01:50:56;;;;;;;20.40;10.48;;;;;;;;;;4992957;28;98579;-73
2022/04/25 01:53:23;;;;;;;21.02;10.65;;;;;;;;;;4993211;28;100130;-73
2022/04/25 01:55:50;;;;;;;21.38;11.05;;;;;;;;;;5013379;28;100268;-73
2022/04/25 01:58:16;;;;;;;16.25;10.80;;;;;;;;;;5009357;28;100930;-73
2022/04/25 02:00:43;;;;;;;15.38;10.82;;;;;;;;;;5010519;28;100196;-73
2022/04/25 02:03:11;;;;;;;15.25;11.07;;;;;;;;;;5009009;28;98512;-73
2022/04/25 02:05:37;;;;;;;22.02;11.98;;;;;;;;;;5010684;28;99986;-73
2022/04/25 02:08:04;;;;;;;19.52;11.50;;;;;;;;;;5009136;28;100711;-73
2022/04/25 02:10:30;;;;;;;15.65;10.88;;;;;;;;;;5009968;28;97800;-73
2022/04/25 02:12:57;;;;;;;20.92;10.75;;;;;;;;;;5009864;28;98534;-73
2022/04/25 02:15:23;;;;;;;16.70;10.75;;;;;;;;;;5010060;28;100206;-73
2022/04/25 02:17:50;;;;;;;19.95;11.15;;;;;;;;;;5011513;28;99278;-73
2022/04/25 02:20:16;;;;;;;13.20;10.52;;;;;;;;;;5004405;28;99498;-73
2022/04/25 02:22:43;;;;;;;15.55;11.80;;;;;;;;;;5009888;28;98788;-73
2022/04/25 02:25:10;;;;;;;22.45;11.15;;;;;;;;;;5003756;28;100033;-73
2022/04/25 02:27:36;;;;;;;20.48;11.65;;;;;;;;;;4990561;28;99148;-73
2022/04/25 02:30:04;;;;;;;21.00;10.98;;;;;;;;;;4996004;28;99386;-73
2022/04/25 02:32:30;;;;;;;17.92;12.07;;;;;;;;;;5010628;28;100071;-73
2022/04/25 02:34:57;;;;;;;18.98;12.38;;;;;;;;;;5009614;28;98645;-73
2022/04/25 02:37:23;;;;;;;19.50;12.23;;;;;;;;;;5009678;28;98649;-73
2022/04/25 02:39:50;;;;;;;24.10;11.48;;;;;;;;;;5011515;28;99868;-73
2022/04/25 02:42:16;;;;;;;16.08;10.85;;;;;;;;;;5009912;28;99308;-73
2022/04/25 02:44:42;;;;;;;17.15;12.10;;;;;;;;;;5007705;28;99799;-73
2022/04/25 02:47:12;;;;;;;19.10;12.07;;;;;;;;;;5010148;28;100127;-73
2022/04/25 02:49:38;;;;;;;20.50;12.00;;;;;;;;;;5001196;28;98539;-73
2022/04/25 02:52:05;;;;;;;17.73;11.88;;;;;;;;;;5001513;28;99296;-73
2022/04/25 02:54:32;;;;;;;19.67;13.63;;;;;;;;;;5008034;28;101094;-73
2022/04/25 02:57:00;;;;;;;17.95;12.07;;;;;;;;;;4970280;28;98605;-73
2022/04/25 02:59:27;;;;;;;20.38;12.95;;;;;;;;;;4972893;28;100148;-73
2022/04/25 03:01:53;;;;;;;19.20;12.70;;;;;;;;;;4990426;28;98678;-73
2022/04/25 03:04:20;;;;;;;20.88;13.18;;;;;;;;;;4989853;28;99194;-73
2022/04/25 03:06:46;;;;;;;21.08;13.95;;;;;;;;;;5004899;28;102782;-73
2022/04/25 03:09:13;;;;;;;22.30;13.30;;;;;;;;;;5010082;28;98509;-73
2022/04/25 03:11:39;;;;;;;20.02;13.32;;;;;;;;;;5007879;28;100049;-73
2022/04/25 03:14:05;;;;;;;23.60;14.77;;;;;;;;;;5009020;28;99553;-73
2022/04/25 03:16:32;;;;;;;26.35;13.68;;;;;;;;;;5007900;28;98619;-73
2022/04/25 03:18:58;;;;;;;22.50;13.50;;;;;;;;;;5003229;28;100025;-73
2022/04/25 03:21:25;;;;;;;21.05;13.38;;;;;;;;;;5012180;28;100221;-73
2022/04/25 03:23:53;;;;;;;17.30;13.80;;;;;;;;;;5008632;28;99443;-73
2022/04/25 03:26:19;;;;;;;23.33;13.57;;;;;;;;;;4974698;28;99322;-73
2022/04/25 03:28:46;;;;;;;22.52;12.90;;;;;;;;;;4970015;28;98909;-73
2022/04/25 03:31:12;;;;;;;19.90;13.07;;;;;;;;;;5004730;28;101712;-73
2022/04/25 03:33:39;;;;;;;23.23;13.00;;;;;;;;;;5008442;28;100503;-73
2022/04/25 03:36:05;;;;;;;17.13;12.75;;;;;;;;;;5008035;28;98568;-73
2022/04/25 03:38:32;;;;;;;18.00;13.40;;;;;;;;;;5009348;28;99194;-73
2022/04/25 03:40:59;;;;;;;20.00;12.93;;;;;;;;;;5006877;28;99967;-73
2022/04/25 03:43:26;;;;;;;23.92;13.25;;;;;;;;;;5012346;28;99990;-73
2022/04/25 03:45:52;;;;;;;20.13;13.45;;;;;;;;;;5006097;28;100572;-73
2022/04/25 03:48:18;;;;;;;24.02;13.18;;;;;;;;;;5008575;28;97835;-73
2022/04/25 03:50:45;;;;;;;23.80;14.60;;;;;;;;;;4992773;28;99478;-73
2022/04/25 03:53:12;;;;;;;22.95;14.02;;;;;;;;;;5008949;28;100668;-73
2022/04/25 03:58:24;;;;;;;18.92;12.40;;;;;;;;;;5008999;28;99493;-73
2022/04/25 04:00:51;;;;;;;25.35;13.60;;;;;;;;;;5007530;28;100338;-73
2022/04/25 04:03:18;;;;;;;26.60;14.18;;;;;;;;;;5008902;28;99159;-73
2022/04/25 04:05:48;;;;;;;16.48;12.05;;;;;;;;;;5008598;28;99059;-73
2022/04/25 04:08:14;;;;;;;24.60;14.77;;;;;;;;;;5008491;28;98812;-74
2022/04/25 04:10:41;;;;;;;24.05;13.43;;;;;;;;;;5002429;28;100714;-73
2022/04/25 04:13:07;;;;;;;25.75;13.70;;;;;;;;;;5009569;28;99567;-73
2022/04/25 04:15:34;;;;;;;18.17;13.00;;;;;;;;;;5006988;28;99384;-73
2022/04/25 04:18:01;;;;;;;25.30;13.95;;;;;;;;;;5009175;28;99794;-73
2022/04/25 04:20:27;;;;;;;17.38;12.82;;;;;;;;;;4992478;28;100973;-73
2022/04/25 04:22:54;;;;;;;15.38;13.75;;;;;;;;;;5008551;28;98988;-73
2022/04/25 04:25:22;;;;;;;20.42;13.05;;;;;;;;;;5007060;28;101126;-73
2022/04/25 04:27:48;;;;;;;20.98;14.95;;;;;;;;;;5011937;28;100085;-73
2022/04/25 04:30:15;;;;;;;18.33;12.23;;;;;;;;;;5006251;28;100387;-73
2022/04/25 04:32:42;;;;;;;15.60;13.10;;;;;;;;;;5008340;28;100377;-72
2022/04/25 04:35:09;;;;;;;21.50;14.45;;;;;;;;;;5007108;28;98562;-73
2022/04/25 04:37:36;;;;;;;19.05;12.68;;;;;;;;;;5007370;28;99245;-73
2022/04/25 04:42:48;;;;;;;21.45;15.13;;;;;;;;;;5008786;28;98501;-73
2022/04/25 04:45:15;;;;;;;27.50;14.63;;;;;;;;;;5004185;28;100211;-73
2022/04/25 04:47:41;;;;;;;25.23;16.05;;;;;;;;;;5008116;28;100425;-73
2022/04/25 04:50:10;;;;;;;21.10;16.33;;;;;;;;;;5008365;28;100409;-73
2022/04/25 04:52:36;;;;;;;23.90;17.95;;;;;;;;;;5007319;28;99724;-73
2022/04/25 04:55:03;;;;;;;21.65;14.93;;;;;;;;;;5006106;28;98673;-73
2022/04/25 04:57:29;;;;;;;22.85;14.85;;;;;;;;;;5007361;28;98887;-73
2022/04/25 04:59:56;;;;;;;25.95;17.23;;;;;;;;;;5007369;28;99567;-73
2022/04/25 05:02:22;;;;;;;28.13;18.42;;;;;;;;;;5008767;28;97780;-74
2022/04/25 05:04:50;;;;;;;20.73;17.35;;;;;;;;;;5004096;28;99394;-74
2022/04/25 05:07:16;;;;;;;27.40;18.58;;;;;;;;;;5006980;28;100152;-73
2022/04/25 05:09:43;;;;;;;26.85;17.63;;;;;;;;;;5008264;28;99296;-73
2022/04/25 05:12:09;;;;;;;26.23;19.30;;;;;;;;;;5007386;28;100265;-73
2022/04/25 05:14:35;;;;;;;21.63;17.48;;;;;;;;;;5006261;28;99854;-72
2022/04/25 05:17:02;;;;;;;24.35;17.65;;;;;;;;;;5006872;28;99889;-74
2022/04/25 05:19:28;;;;;;;31.88;19.80;;;;;;;;;;4995715;28;99273;-73
2022/04/25 05:21:55;;;;;;;23.33;16.70;;;;;;;;;;5008491;28;98608;-72
2022/04/25 05:24:22;;;;;;;27.67;20.52;;;;;;;;;;4999468;28;100384;-73
2022/04/25 05:26:48;;;;;;;37.58;22.80;;;;;;;;;;4983613;28;100018;-74
2022/04/25 05:29:14;;;;;;;31.55;21.58;;;;;;;;;;4986213;28;98721;-76
2022/04/25 05:31:41;;;;;;;26.73;18.67;;;;;;;;;;5010938;28;99979;-75
2022/04/25 05:34:09;;;;;;;44.33;23.58;;;;;;;;;;5004782;28;99927;-78
2022/04/25 05:36:35;;;;;;;33.38;23.27;;;;;;;;;;5007464;28;100037;-77
2022/04/25 05:39:02;;;;;;;42.60;24.98;;;;;;;;;;4998794;28;99621;-78
2022/04/25 05:41:29;;;;;;;37.28;23.55;;;;;;;;;;5001693;28;98564;-76
2022/04/25 05:43:55;;;;;;;36.08;24.02;;;;;;;;;;4995842;28;100020;-76
2022/04/25 05:46:22;;;;;;;33.55;23.42;;;;;;;;;;4992969;28;100582;-75
2022/04/25 05:54:19;;;;;;;34.08;24.63;;;;;;;;;;4990373;28;99523;-74
2022/04/25 05:56:45;;;;;;;39.60;28.42;;;;;;;;;;4979462;28;100352;-74
2022/04/25 05:59:12;;;;;;;34.95;26.35;;;;;;;;;;4975955;28;100989;-75
2022/04/25 06:01:38;;;;;;;40.25;26.50;;;;;;;;;;4981506;28;99377;-74
2022/04/25 06:04:05;;;;;;;43.35;29.38;;;;;;;;;;4988082;28;100123;-74
2022/04/25 06:06:31;;;;;;;47.03;30.60;;;;;;;;;;4974326;28;100437;-74
2022/04/25 06:08:57;;;;;;;38.92;23.17;;;;;;;;;;4974085;28;98642;-74
2022/04/25 06:11:24;;;;;;;40.83;28.30;;;;;;;;;;4990310;28;100047;-74
2022/04/25 06:13:50;;;;;;;43.75;27.73;;;;;;;;;;4988329;28;100193;-71
2022/04/25 06:16:17;;;;;;;35.58;25.33;;;;;;;;;;4987430;28;98035;-72
2022/04/25 06:18:43;;;;;;;43.90;27.77;;;;;;;;;;4999375;28;99537;-75
2022/04/25 06:21:09;;;;;;;38.80;26.85;;;;;;;;;;4996436;28;99100;-71
2022/04/25 06:23:36;;;;;;;43.70;26.67;;;;;;;;;;4978712;28;102131;-72
2022/04/25 06:26:02;;;;;;;35.80;21.65;;;;;;;;;;4985205;28;100354;-73
2022/04/25 06:28:29;;;;;;;36.75;25.55;;;;;;;;;;4977212;28;100869;-74
2022/04/25 06:30:55;;;;;;;41.88;28.10;;;;;;;;;;4975123;28;100032;-75
2022/04/25 06:33:21;;;;;;;41.05;26.88;;;;;;;;;;4990292;28;100325;-77
2022/04/25 06:35:51;;;;;;;45.65;30.20;;;;;;;;;;4990747;28;98504;-78
2022/04/25 06:38:18;;;;;;;40.25;24.73;;;;;;;;;;4993435;28;100221;-78
2022/04/25 06:40:45;;;;;;;35.83;24.17;;;;;;;;;;4990944;28;97790;-78
2022/04/25 06:43:13;;;;;;;35.58;25.05;;;;;;;;;;4989882;28;99616;-77
2022/04/25 06:45:40;;;;;;;36.90;22.80;;;;;;;;;;4989711;28;99316;-80
2022/04/25 06:48:07;;;;;;;42.25;25.25;;;;;;;;;;4990038;28;99258;-80
2022/04/25 06:50:33;;;;;;;41.63;27.92;;;;;;;;;;4981701;28;100816;-79
2022/04/25 06:52:59;;;;;;;45.75;29.02;;;;;;;;;;4971671;28;100337;-78
2022/04/25 06:55:26;;;;;;;49.65;29.13;;;;;;;;;;4973560;28;98650;-79
2022/04/25 06:57:53;;;;;;;49.88;27.98;;;;;;;;;;4970007;28;99827;-79
2022/04/25 07:00:22;;;;;;;44.28;27.85;;;;;;;;;;4982255;28;99451;-79
2022/04/25 07:03:05;;;;;;;29.50;18.42;;;;;;;;;;4970671;28;99261;-80
2022/04/25 07:05:32;;;;;;;52.17;27.73;;;;;;;;;;4977873;28;99961;-80
2022/04/25 07:07:58;;;;;;;46.13;26.10;;;;;;;;;;4990251;28;98486;-80
2022/04/25 07:10:24;;;;;;;49.88;27.40;;;;;;;;;;4989549;28;99073;-80
2022/04/25 07:12:51;;;;;;;57.25;29.45;;;;;;;;;;4976587;28;101217;-80
2022/04/25 07:15:17;;;;;;;39.83;24.70;;;;;;;;;;4970206;28;98549;-81
2022/04/25 07:17:43;;;;;;;43.05;26.73;;;;;;;;;;4969913;28;100346;-80
2022/04/25 07:20:10;;;;;;;40.65;26.33;;;;;;;;;;4976540;28;100207;-79
2022/04/25 07:30:51;;;;;;;38.97;23.60;;;;;;;;;;5007770;28;100611;-80
2022/04/25 07:33:17;;;;;;;35.88;22.42;;;;;;;;;;5008551;28;100163;-79
2022/04/25 07:35:43;;;;;;;48.30;29.65;;;;;;;;;;5009510;28;98475;-81
2022/04/25 07:38:10;;;;;;;48.25;28.48;;;;;;;;;;4999532;28;99952;-81
2022/04/25 07:40:37;;;;;;;42.75;27.23;;;;;;;;;;4988533;28;100187;-80
2022/04/25 07:43:03;;;;;;;49.75;24.95;;;;;;;;;;4993093;28;98505;-80
2022/04/25 07:45:30;;;;;;;40.35;24.10;;;;;;;;;;4988997;28;100317;-80
2022/04/25 07:47:56;;;;;;;40.17;25.15;;;;;;;;;;4976494;28;99826;-79
2022/04/25 07:50:23;;;;;;;46.42;25.60;;;;;;;;;;4985757;28;99832;-79
2022/04/25 07:52:50;;;;;;;42.45;27.17;;;;;;;;;;4968913;28;99282;-79
2022/04/25 07:55:17;;;;;;;34.83;25.08;;;;;;;;;;4969258;28;98307;-78
2022/04/25 07:57:45;;;;;;;36.67;22.85;;;;;;;;;;4980179;28;99364;-79
2022/04/25 08:00:11;;;;;;;37.95;22.90;;;;;;;;;;5003121;28;100325;-78
2022/04/25 08:02:38;;;;;;;44.50;26.48;;;;;;;;;;5007770;28;99909;-78
2022/04/25 08:05:04;;;;;;;45.17;26.80;;;;;;;;;;5012275;28;100729;-78
2022/04/25 08:07:31;;;;;;;37.50;23.00;;;;;;;;;;5007794;28;98695;-77
2022/04/25 08:09:58;;;;;;;33.47;22.77;;;;;;;;;;5008632;28;99851;-77
2022/04/25 08:18:00;;;;;;;36.38;22.75;;;;;;;;;;5009004;28;100063;-77
2022/04/25 08:20:31;;;;;;;40.10;23.73;;;;;;;;;;5008791;28;99838;-78
2022/04/25 08:22:57;;;;;;;32.60;23.13;;;;;;;;;;5002400;28;98975;-77
2022/04/25 08:25:24;;;;;;;31.20;20.85;;;;;;;;;;4970952;28;100052;-77
2022/04/25 08:27:50;;;;;;;22.85;17.15;;;;;;;;;;4971407;28;100064;-76
2022/04/25 08:30:17;;;;;;;25.98;18.45;;;;;;;;;;4971668;28;100827;-76
2022/04/25 08:32:46;;;;;;;27.25;19.40;;;;;;;;;;4968382;28;100461;-76
2022/04/25 08:35:13;;;;;;;26.42;20.27;;;;;;;;;;4968893;28;98535;-78
2022/04/25 08:37:40;;;;;;;25.48;17.25;;;;;;;;;;4968222;28;99938;-75
2022/04/25 08:40:07;;;;;;;22.98;16.15;;;;;;;;;;4973549;28;100342;-77
2022/04/25 08:42:35;;;;;;;27.90;18.08;;;;;;;;;;4987601;28;98881;-76
2022/04/25 08:45:11;;;;;;;25.23;17.65;;;;;;;;;;4989383;28;100210;-76
2022/04/25 08:47:47;;;;;;;29.83;19.38;;;;;;;;;;4988029;28;99390;-76
2022/04/25 08:50:18;;;;;;;24.42;18.80;;;;;;;;;;4991111;28;98932;-76
2022/04/25 08:52:45;;;;;;;30.10;20.05;;;;;;;;;;4984402;28;101934;-76
2022/04/25 08:55:12;;;;;;;37.33;20.83;;;;;;;;;;4976242;28;98607;-76
2022/04/25 08:57:40;;;;;;;36.40;22.90;;;;;;;;;;4986565;28;99084;-76
2022/04/25 09:00:07;;;;;;;34.45;21.13;;;;;;;;;;4988079;28;100310;-76
2022/04/25 09:02:38;;;;;;;33.63;20.45;;;;;;;;;;4988377;28;98739;-76
2022/04/25 09:05:06;;;;;;;36.72;21.98;;;;;;;;;;4987581;28;100101;-76
2022/04/25 09:07:33;;;;;;;37.05;22.00;;;;;;;;;;4987605;28;100281;-76
2022/04/25 09:09:59;;;;;;;32.40;19.65;;;;;;;;;;4988237;28;97839;-75
2022/04/25 09:12:26;;;;;;;31.88;22.77;;;;;;;;;;4990705;28;99474;-75
2022/04/25 09:14:52;;;;;;;35.75;22.63;;;;;;;;;;4988190;28;99016;-75
2022/04/25 09:17:39;;;;;;;28.15;18.48;;;;;;;;;;4986715;28;99971;-75
2022/04/25 09:20:21;;;;;;;31.67;21.30;;;;;;;;;;5079667;27;86856;-74
2022/04/25 09:22:48;;;;;;;33.38;21.83;;;;;;;;;;5073756;27;89016;-74
2022/04/25 09:25:15;;;;;;;33.88;22.08;;;;;;;;;;5070479;27;90358;-73
2022/04/25 09:28:09;;;;;;;34.05;21.83;;;;;;;;;;5070506;27;89001;-76
2022/04/25 09:30:37;;;;;;;37.50;22.25;;;;;;;;;;5072580;27;90406;-75
2022/04/25 09:33:20;;;;;;;35.67;21.95;;;;;;;;;;5072536;27;90373;-76
2022/04/25 09:35:51;;;;;;;30.90;18.50;;;;;;;;;;5073005;27;88987;-76
2022/04/25 09:38:27;;;;;;;29.23;19.13;;;;;;;;;;5073190;27;90910;-76
2022/04/25 09:40:55;;;;;;;28.63;19.85;;;;;;;;;;5075585;27;90421;-76
2022/04/25 09:43:27;;;;;;;26.13;19.63;;;;;;;;;;5073441;27;90964;-76
2022/04/25 09:45:58;;;;;;;27.15;19.48;;;;;;;;;;5073260;27;90377;-76
2022/04/25 09:48:25;;;;;;;29.95;19.50;;;;;;;;;;5073427;27;89063;-76
2022/04/25 09:51:00;;;;;;;28.92;19.48;;;;;;;;;;5073554;27;88977;-76
2022/04/25 09:53:40;;;;;;;20.45;17.60;;;;;;;;;;5066476;27;89699;-75
2022/04/25 09:56:14;;;;;;;24.90;16.02;;;;;;;;;;5052778;27;89116;-74
2022/04/25 09:58:41;;;;;;;26.45;16.63;;;;;;;;;;5051994;27;89228;-74
2022/04/25 10:01:11;;;;;;;25.08;18.90;;;;;;;;;;5052266;27;90406;-74
2022/04/25 10:03:37;;;;;;;23.00;16.88;;;;;;;;;;5054498;27;89109;-74
2022/04/25 10:06:04;;;;;;;21.55;17.45;;;;;;;;;;5052367;27;91310;-74
2022/04/25 10:08:31;;;;;;;19.10;14.57;;;;;;;;;;5051773;27;89016;-73
2022/04/25 10:11:00;;;;;;;21.85;15.35;;;;;;;;;;5052553;27;90789;-73
2022/04/25 10:13:27;;;;;;;19.20;16.50;;;;;;;;;;5051637;27;89235;-73
2022/04/25 10:15:55;;;;;;;22.70;15.30;;;;;;;;;;5050905;27;89434;-73
2022/04/25 10:18:22;;;;;;;17.77;14.23;;;;;;;;;;5051466;27;91009;-73
2022/04/25 10:20:49;;;;;;;15.82;12.55;;;;;;;;;;5052570;27;90476;-74
2022/04/25 10:23:15;;;;;;;21.58;14.82;;;;;;;;;;5051710;27;89156;-73
2022/04/25 10:25:49;;;;;;;14.35;12.57;;;;;;;;;;5053619;27;90664;-73
2022/04/25 10:28:18;;;;;;;16.70;14.80;;;;;;;;;;5068620;27;89023;-73
2022/04/25 10:30:46;;;;;;;17.40;14.80;;;;;;;;;;5063870;27;91059;-73
2022/04/25 10:33:20;;;;;;;21.70;14.18;;;;;;;;;;5058775;27;90663;-73
2022/04/25 10:35:50;;;;;;;17.27;14.73;;;;;;;;;;5057182;27;88939;-73
2022/04/25 10:38:47;;;;;;;22.13;13.18;;;;;;;;;;5058660;27;90887;-73
2022/04/25 10:44:25;;;;;;;17.63;13.73;;;;;;;;;;5036943;27;89248;-73
2022/04/25 10:47:04;;;;;;;21.92;13.95;;;;;;;;;;5058344;27;89885;-73
2022/04/25 10:49:31;;;;;;;13.55;11.32;;;;;;;;;;5060507;27;90461;-73
2022/04/25 10:51:59;;;;;;;15.15;11.93;;;;;;;;;;5052292;27;90785;-73
2022/04/25 10:54:27;;;;;;;15.43;12.57;;;;;;;;;;5038305;27;90628;-73
2022/04/25 10:57:09;;;;;;;18.25;13.55;;;;;;;;;;5037435;28;89050;-73
2022/04/25 10:59:37;;;;;;;15.73;12.27;;;;;;;;;;5037948;28;91010;-73
2022/04/25 11:02:26;;;;;;;18.35;13.10;;;;;;;;;;5037800;28;90225;-73
2022/04/25 11:05:11;;;;;;;25.30;14.75;;;;;;;;;;5037625;28;89292;-74
2022/04/25 11:07:38;;;;;;;16.70;13.52;;;;;;;;;;5036644;27;90122;-74
2022/04/25 11:10:05;;;;;;;17.70;13.50;;;;;;;;;;5037912;28;90394;-73
2022/04/25 11:12:50;;;;;;;16.42;12.40;;;;;;;;;;5039837;27;89193;-74
2022/04/25 11:15:37;;;;;;;17.95;13.43;;;;;;;;;;5037734;28;89507;-74
2022/04/25 11:20:55;;;;;;;19.00;14.93;;;;;;;;;;5037576;28;89877;-73
2022/04/25 11:23:28;;;;;;;19.35;13.13;;;;;;;;;;5037111;27;90489;-72
2022/04/25 11:25:59;;;;;;;19.73;13.73;;;;;;;;;;5037124;28;89121;-72
2022/04/25 11:28:26;;;;;;;15.45;11.43;;;;;;;;;;5037723;28;91113;-73
2022/04/25 11:31:11;;;;;;;16.40;13.23;;;;;;;;;;5037107;28;89849;-73
2022/04/25 11:33:45;;;;;;;17.60;12.23;;;;;;;;;;5036873;28;89052;-73
2022/04/25 11:36:13;;;;;;;14.23;10.68;;;;;;;;;;5040154;28;89254;-73
2022/04/25 11:41:26;;;;;;;15.95;11.82;;;;;;;;;;5035828;27;89988;-73
2022/04/25 11:43:52;;;;;;;16.15;13.88;;;;;;;;;;5036560;28;89240;-73
2022/04/25 11:46:18;;;;;;;16.92;14.30;;;;;;;;;;5035692;27;89317;-73
2022/04/25 11:48:48;;;;;;;26.17;13.80;;;;;;;;;;5048700;27;90928;-73
2022/04/25 11:51:24;;;;;;;16.73;13.95;;;;;;;;;;5057135;27;89893;-73
2022/04/25 11:53:52;;;;;;;17.42;13.00;;;;;;;;;;5036231;27;89588;-73
2022/04/25 11:56:19;;;;;;;22.42;14.77;;;;;;;;;;5040244;28;90780;-73
2022/04/25 11:58:45;;;;;;;14.90;13.23;;;;;;;;;;5036791;28;89050;-73
2022/04/25 12:01:12;;;;;;;19.02;14.63;;;;;;;;;;5036552;28;91036;-73
2022/04/25 12:03:38;;;;;;;18.52;14.00;;;;;;;;;;5036661;28;89747;-73
2022/04/25 12:06:12;;;;;;;19.50;14.55;;;;;;;;;;5042131;27;89077;-73
2022/04/25 12:17:00;;;;;;;18.23;14.05;;;;;;;;;;5056984;27;90408;-72
2022/04/25 12:19:26;;;;;;;;;;;;;;;;;;5059561;27;89967;-72
2022/04/25 12:22:00;;;;;;;21.92;14.70;;;;;;;;;;5058135;27;119346;-72
2022/04/25 12:24:26;;;;;;;26.02;15.95;;;;;;;;;;5040701;27;89623;-72
2022/04/25 12:27:08;;;;;;;19.50;15.35;;;;;;;;;;5036309;28;89005;-72
2022/04/25 12:29:34;;;;;;;22.52;15.88;;;;;;;;;;5035746;28;89821;-72
2022/04/25 12:32:02;;;;;;;21.27;15.23;;;;;;;;;;5035956;28;89730;-72
2022/04/25 12:34:31;;;;;;;17.38;15.48;;;;;;;;;;5036418;28;89114;-75
2022/04/25 12:36:59;;;;;;;20.73;16.63;;;;;;;;;;5036147;28;91107;-72
2022/04/25 12:39:27;;;;;;;18.48;15.90;;;;;;;;;;5035841;28;89729;-72
2022/04/25 12:41:56;;;;;;;24.13;16.65;;;;;;;;;;5038625;28;89088;-72
2022/04/25 12:44:23;;;;;;;23.13;17.10;;;;;;;;;;5036106;28;90489;-73
2022/04/25 12:47:00;;;;;;;30.50;17.23;;;;;;;;;;5036607;28;89078;-72
2022/04/25 12:49:36;;;;;;;25.13;16.02;;;;;;;;;;5035498;28;90770;-72
2022/04/25 12:52:04;;;;;;;22.50;15.77;;;;;;;;;;5035435;27;91259;-72
2022/04/25 12:54:57;;;;;;;21.35;16.55;;;;;;;;;;5036372;27;89576;-72
2022/04/25 12:57:24;;;;;;;22.30;15.48;;;;;;;;;;5049996;27;90032;-72
2022/04/25 12:59:54;;;;;;;24.23;15.63;;;;;;;;;;5048774;27;89534;-72
2022/04/25 13:02:21;;;;;;;21.67;15.55;;;;;;;;;;5036759;27;89459;-72
2022/04/25 13:04:52;;;;;;;21.00;15.93;;;;;;;;;;5058658;27;90961;-72
2022/04/25 13:07:28;;;;;;;25.88;17.50;;;;;;;;;;5069454;27;89024;-72
2022/04/25 13:09:56;;;;;;;20.90;16.33;;;;;;;;;;5076135;27;90930;-73
2022/04/25 13:12:33;;;;;;;23.38;16.42;;;;;;;;;;5076507;27;89334;-72
2022/04/25 13:15:00;;;;;;;27.48;17.17;;;;;;;;;;5076343;27;89227;-72
2022/04/25 13:17:36;;;;;;;17.45;14.52;;;;;;;;;;5075503;27;90313;-72
2022/04/25 13:20:09;;;;;;;27.58;16.15;;;;;;;;;;5075869;27;89575;-72
2022/04/25 13:22:36;;;;;;;23.38;16.80;;;;;;;;;;5072488;27;89606;-72
2022/04/25 13:25:03;;;;;;;22.00;16.17;;;;;;;;;;5040724;27;90937;-72
2022/04/25 13:27:30;;;;;;;26.38;16.48;;;;;;;;;;5038501;28;90515;-73
2022/04/25 13:29:56;;;;;;;22.00;15.18;;;;;;;;;;5035964;28;90994;-73
2022/04/25 13:32:23;;;;;;;21.00;14.65;;;;;;;;;;5034981;28;89348;-73
2022/04/25 13:34:49;;;;;;;22.58;16.00;;;;;;;;;;5035509;28;89038;-73
2022/04/25 13:37:16;;;;;;;25.13;17.77;;;;;;;;;;5035406;28;90450;-73
2022/04/25 13:39:42;;;;;;;24.25;17.35;;;;;;;;;;5034310;28;90482;-73
2022/04/25 13:42:12;;;;;;;31.85;17.38;;;;;;;;;;5043273;27;90385;-73
2022/04/25 13:44:38;;;;;;;24.27;17.02;;;;;;;;;;5036360;27;90166;-73
2022/04/25 13:47:06;;;;;;;26.40;17.70;;;;;;;;;;5037119;28;89534;-73
2022/04/25 13:49:32;;;;;;;28.55;17.95;;;;;;;;;;5041387;27;90260;-73
2022/04/25 13:52:01;;;;;;;27.13;18.92;;;;;;;;;;5052802;27;90430;-73
2022/04/25 13:54:28;;;;;;;23.40;16.35;;;;;;;;;;5040033;27;90912;-74
2022/04/25 13:56:55;;;;;;;24.60;18.38;;;;;;;;;;5039080;27;91116;-75
2022/04/25 13:59:22;;;;;;;27.08;18.33;;;;;;;;;;5035306;27;90222;-74
2022/04/25 14:01:48;;;;;;;27.35;17.98;;;;;;;;;;5067076;27;89025;-75
2022/04/25 14:04:14;;;;;;;28.42;19.63;;;;;;;;;;5037672;27;90808;-75
2022/04/25 14:06:41;;;;;;;28.67;18.85;;;;;;;;;;5037521;27;92490;-75
2022/04/25 14:09:07;;;;;;;27.20;19.42;;;;;;;;;;5042026;27;91111;-75
2022/04/25 14:11:34;;;;;;;27.80;17.98;;;;;;;;;;5035191;27;90104;-74
2022/04/25 14:14:00;;;;;;;30.17;19.48;;;;;;;;;;5036767;27;90849;-75
2022/04/25 14:16:26;;;;;;;27.25;19.60;;;;;;;;;;5043541;27;90856;-75
2022/04/25 14:18:53;;;;;;;18.52;15.05;;;;;;;;;;5042301;27;90320;-75
2022/04/25 14:21:20;;;;;;;26.23;18.08;;;;;;;;;;5054280;27;89773;-75
2022/04/25 14:23:46;;;;;;;31.40;18.65;;;;;;;;;;5052919;27;90029;-75
2022/04/25 14:26:13;;;;;;;32.03;20.20;;;;;;;;;;5054382;27;90406;-75
2022/04/25 14:28:40;;;;;;;29.55;18.52;;;;;;;;;;5048003;27;89960;-76
2022/04/25 14:31:26;;;;;;;28.13;19.52;;;;;;;;;;5051733;27;90172;-75
2022/04/25 14:33:52;;;;;;;23.15;17.05;;;;;;;;;;5044019;27;90007;-75
2022/04/25 14:36:19;;;;;;;24.83;17.98;;;;;;;;;;5046347;27;90957;-75
2022/04/25 14:38:45;;;;;;;22.60;18.27;;;;;;;;;;5046485;27;89235;-75
2022/04/25 14:41:11;;;;;;;23.00;18.98;;;;;;;;;;5052468;27;89058;-75
2022/04/25 14:43:38;;;;;;;26.58;19.92;;;;;;;;;;5046103;27;91274;-75
2022/04/25 14:46:04;;;;;;;22.67;19.08;;;;;;;;;;5041480;27;89834;-75
2022/04/25 14:48:32;;;;;;;26.33;19.40;;;;;;;;;;5037339;27;89883;-76
2022/04/25 14:56:28;;;;;;;24.80;19.63;;;;;;;;;;5052727;27;92410;-76
2022/04/25 14:58:56;;;;;;;27.55;18.65;;;;;;;;;;5055934;27;90360;-75
2022/04/25 15:01:23;;;;;;;27.30;19.48;;;;;;;;;;5057444;27;89783;-75
2022/04/25 15:03:50;;;;;;;28.45;19.52;;;;;;;;;;5052910;27;90037;-75
2022/04/25 15:06:16;;;;;;;26.77;20.27;;;;;;;;;;5046243;27;90513;-74
2022/04/25 15:08:43;;;;;;;21.27;17.08;;;;;;;;;;5038365;27;89891;-77
2022/04/25 15:11:09;;;;;;;24.85;18.95;;;;;;;;;;5057124;27;90841;-75
2022/04/25 15:13:35;;;;;;;26.92;19.90;;;;;;;;;;5046550;27;90486;-76
2022/04/25 15:16:03;;;;;;;29.65;20.92;;;;;;;;;;5038389;27;89190;-75